sensor_id;sensor_type;location;lat;lon;timestamp;temperature;humidity
18894;DHT22;9579;49.488;8.226;2024-01-16T00:01:41;2.20;99.90
18894;DHT22;9579;49.488;8.226;2024-01-16T00:04:29;2.10;99.90
18894;DHT22;9579;49.488;8.226;2024-01-16T00:07:16;2.10;99.90
18894;DHT22;9579;49.488;8.226;2024-01-16T00:10:07;2.20;99.90
18894;DHT22;9579;49.488;8.226;2024-01-16T00:12:54;2.30;99.90
18894;DHT22;9579;49.488;8.226;2024-01-16T00:15:41;2.50;99.90
18894;DHT22;9579;49.488;8.226;2024-01-16T00:18:28;2.60;99.90
18894;DHT22;9579;49.488;8.226;2024-01-16T00:21:15;2.60;99.90
18894;DHT22;9579;49.488;8.226;2024-01-16T00:24:02;2.50;99.90
18894;DHT22;9579;49.488;8.226;2024-01-16T00:26:51;2.60;99.90
18894;DHT22;9579;49.488;8.226;2024-01-16T00:29:38;2.60;99.90
18894;DHT22;9579;49.488;8.226;2024-01-16T00:32:25;2.60;99.90
18894;DHT22;9579;49.488;8.226;2024-01-16T00:35:12;2.60;99.90
18894;DHT22;9579;49.488;8.226;2024-01-16T00:37:59;2.60;99.90
18894;DHT22;9579;49.488;8.226;2024-01-16T00:40:46;2.80;99.90
18894;DHT22;9579;49.488;8.226;2024-01-16T00:43:34;2.80;99.90
18894;DHT22;9579;49.488;8.226;2024-01-16T00:46:21;2.70;99.90
18894;DHT22;9579;49.488;8.226;2024-01-16T00:49:08;2.60;99.90
18894;DHT22;9579;49.488;8.226;2024-01-16T00:51:55;2.60;99.90
18894;DHT22;9579;49.488;8.226;2024-01-16T00:54:43;2.50;99.90
18894;DHT22;9579;49.488;8.226;2024-01-16T00:57:30;2.50;99.90
18894;DHT22;9579;49.488;8.226;2024-01-16T01:00:18;2.50;99.90
18894;DHT22;9579;49.488;8.226;2024-01-16T01:03:06;2.40;99.90
18894;DHT22;9579;49.488;8.226;2024-01-16T01:05:52;2.30;99.90
18894;DHT22;9579;49.488;8.226;2024-01-16T01:08:40;2.30;99.90
18894;DHT22;9579;49.488;8.226;2024-01-16T01:11:26;2.40;99.90
18894;DHT22;9579;49.488;8.226;2024-01-16T01:14:13;2.40;99.90
18894;DHT22;9579;49.488;8.226;2024-01-16T01:17:02;2.40;99.90
18894;DHT22;9579;49.488;8.226;2024-01-16T01:19:49;2.40;99.90
18894;DHT22;9579;49.488;8.226;2024-01-16T01:22:36;2.40;99.90
18894;DHT22;9579;49.488;8.226;2024-01-16T01:25:23;2.40;99.90
18894;DHT22;9579;49.488;8.226;2024-01-16T01:28:11;2.40;99.90
18894;DHT22;9579;49.488;8.226;2024-01-16T01:30:58;2.40;99.90
18894;DHT22;9579;49.488;8.226;2024-01-16T01:33:47;2.50;99.90
18894;DHT22;9579;49.488;8.226;2024-01-16T01:36:34;2.40;99.90
18894;DHT22;9579;49.488;8.226;2024-01-16T01:39:21;2.30;99.90
18894;DHT22;9579;49.488;8.226;2024-01-16T01:42:08;2.30;99.90
18894;DHT22;9579;49.488;8.226;2024-01-16T01:44:55;2.20;99.90
18894;DHT22;9579;49.488;8.226;2024-01-16T01:47:42;2.20;99.90
18894;DHT22;9579;49.488;8.226;2024-01-16T01:50:30;2.20;99.90
18894;DHT22;9579;49.488;8.226;2024-01-16T01:53:17;2.20;99.90
18894;DHT22;9579;49.488;8.226;2024-01-16T01:56:08;2.10;99.90
18894;DHT22;9579;49.488;8.226;2024-01-16T01:58:57;2.10;99.90
18894;DHT22;9579;49.488;8.226;2024-01-16T02:01:45;2.00;99.90
18894;DHT22;9579;49.488;8.226;2024-01-16T02:04:33;2.00;99.90
18894;DHT22;9579;49.488;8.226;2024-01-16T02:07:22;2.00;99.90
18894;DHT22;9579;49.488;8.226;2024-01-16T02:10:10;2.00;99.90
18894;DHT22;9579;49.488;8.226;2024-01-16T02:12:57;1.90;99.90
18894;DHT22;9579;49.488;8.226;2024-01-16T02:15:44;2.00;99.90
18894;DHT22;9579;49.488;8.226;2024-01-16T02:18:31;1.90;99.90
18894;DHT22;9579;49.488;8.226;2024-01-16T02:21:21;2.00;99.90
18894;DHT22;9579;49.488;8.226;2024-01-16T02:24:10;1.80;99.90
18894;DHT22;9579;49.488;8.226;2024-01-16T02:26:57;1.80;99.90
18894;DHT22;9579;49.488;8.226;2024-01-16T02:29:45;1.80;99.90
18894;DHT22;9579;49.488;8.226;2024-01-16T02:32:32;1.80;99.90
18894;DHT22;9579;49.488;8.226;2024-01-16T02:35:19;1.90;99.90
18894;DHT22;9579;49.488;8.226;2024-01-16T02:38:06;1.80;99.90
18894;DHT22;9579;49.488;8.226;2024-01-16T02:40:54;1.90;99.90
18894;DHT22;9579;49.488;8.226;2024-01-16T02:43:41;1.80;99.90
18894;DHT22;9579;49.488;8.226;2024-01-16T02:46:28;1.90;99.90
18894;DHT22;9579;49.488;8.226;2024-01-16T02:49:15;1.90;99.90
18894;DHT22;9579;49.488;8.226;2024-01-16T02:52:03;1.90;99.90
18894;DHT22;9579;49.488;8.226;2024-01-16T02:54:50;1.90;99.90
18894;DHT22;9579;49.488;8.226;2024-01-16T02:57:38;1.90;99.90
18894;DHT22;9579;49.488;8.226;2024-01-16T03:00:25;2.00;99.90
18894;DHT22;9579;49.488;8.226;2024-01-16T03:03:13;2.00;99.90
18894;DHT22;9579;49.488;8.226;2024-01-16T03:06:00;1.90;99.90
18894;DHT22;9579;49.488;8.226;2024-01-16T03:08:47;2.00;99.90
18894;DHT22;9579;49.488;8.226;2024-01-16T03:11:34;2.10;99.90
18894;DHT22;9579;49.488;8.226;2024-01-16T03:14:22;2.10;99.90
18894;DHT22;9579;49.488;8.226;2024-01-16T03:17:09;2.10;99.90
18894;DHT22;9579;49.488;8.226;2024-01-16T03:19:56;2.00;99.90
18894;DHT22;9579;49.488;8.226;2024-01-16T03:22:43;2.10;99.90
18894;DHT22;9579;49.488;8.226;2024-01-16T03:25:30;2.10;99.90
18894;DHT22;9579;49.488;8.226;2024-01-16T03:28:22;2.10;99.90
18894;DHT22;9579;49.488;8.226;2024-01-16T03:31:12;2.10;99.90
18894;DHT22;9579;49.488;8.226;2024-01-16T03:33:59;2.20;99.90
18894;DHT22;9579;49.488;8.226;2024-01-16T03:36:47;2.10;99.90
18894;DHT22;9579;49.488;8.226;2024-01-16T03:39:34;2.00;99.90
18894;DHT22;9579;49.488;8.226;2024-01-16T03:42:21;2.00;99.90
18894;DHT22;9579;49.488;8.226;2024-01-16T03:45:09;2.00;99.90
18894;DHT22;9579;49.488;8.226;2024-01-16T03:47:58;2.00;99.90
18894;DHT22;9579;49.488;8.226;2024-01-16T03:50:45;2.10;99.90
18894;DHT22;9579;49.488;8.226;2024-01-16T03:53:33;2.00;99.90
18894;DHT22;9579;49.488;8.226;2024-01-16T03:56:20;2.00;99.90
18894;DHT22;9579;49.488;8.226;2024-01-16T03:59:07;1.90;99.90
18894;DHT22;9579;49.488;8.226;2024-01-16T04:01:54;1.90;99.90
18894;DHT22;9579;49.488;8.226;2024-01-16T04:04:42;2.00;99.90
18894;DHT22;9579;49.488;8.226;2024-01-16T04:07:29;1.90;99.90
18894;DHT22;9579;49.488;8.226;2024-01-16T04:10:16;1.90;99.90
18894;DHT22;9579;49.488;8.226;2024-01-16T04:13:03;1.90;99.90
18894;DHT22;9579;49.488;8.226;2024-01-16T04:15:50;1.90;99.90
18894;DHT22;9579;49.488;8.226;2024-01-16T04:18:39;1.90;99.90
18894;DHT22;9579;49.488;8.226;2024-01-16T04:21:28;2.00;99.90
18894;DHT22;9579;49.488;8.226;2024-01-16T04:24:15;2.00;99.90
18894;DHT22;9579;49.488;8.226;2024-01-16T04:27:03;2.00;99.90
18894;DHT22;9579;49.488;8.226;2024-01-16T04:29:50;2.00;99.90
18894;DHT22;9579;49.488;8.226;2024-01-16T04:32:37;2.10;99.90
18894;DHT22;9579;49.488;8.226;2024-01-16T04:35:24;2.10;99.90
18894;DHT22;9579;49.488;8.226;2024-01-16T04:38:12;2.20;99.90
18894;DHT22;9579;49.488;8.226;2024-01-16T04:41:01;2.10;99.90
18894;DHT22;9579;49.488;8.226;2024-01-16T04:43:48;2.10;99.90
18894;DHT22;9579;49.488;8.226;2024-01-16T04:46:35;2.00;99.90
18894;DHT22;9579;49.488;8.226;2024-01-16T04:49:22;1.90;99.90
18894;DHT22;9579;49.488;8.226;2024-01-16T04:52:09;1.90;99.90
18894;DHT22;9579;49.488;8.226;2024-01-16T04:54:58;1.80;99.90
18894;DHT22;9579;49.488;8.226;2024-01-16T04:57:45;1.90;99.90
18894;DHT22;9579;49.488;8.226;2024-01-16T05:00:32;1.80;99.90
18894;DHT22;9579;49.488;8.226;2024-01-16T05:03:19;1.80;99.90
18894;DHT22;9579;49.488;8.226;2024-01-16T05:06:12;1.70;99.90
18894;DHT22;9579;49.488;8.226;2024-01-16T05:09:00;1.70;99.90
18894;DHT22;9579;49.488;8.226;2024-01-16T05:11:50;1.70;99.90
18894;DHT22;9579;49.488;8.226;2024-01-16T05:14:37;1.80;99.90
18894;DHT22;9579;49.488;8.226;2024-01-16T05:17:24;1.90;99.90
18894;DHT22;9579;49.488;8.226;2024-01-16T05:20:11;1.80;99.90
18894;DHT22;9579;49.488;8.226;2024-01-16T05:22:58;1.90;99.90
18894;DHT22;9579;49.488;8.226;2024-01-16T05:25:45;1.80;99.90
18894;DHT22;9579;49.488;8.226;2024-01-16T05:28:34;1.80;99.90
18894;DHT22;9579;49.488;8.226;2024-01-16T05:31:21;1.90;99.90
18894;DHT22;9579;49.488;8.226;2024-01-16T05:34:08;1.90;99.90
18894;DHT22;9579;49.488;8.226;2024-01-16T05:36:55;1.80;99.90
18894;DHT22;9579;49.488;8.226;2024-01-16T05:39:42;1.80;99.90
18894;DHT22;9579;49.488;8.226;2024-01-16T05:42:29;1.80;99.90
18894;DHT22;9579;49.488;8.226;2024-01-16T05:45:18;1.80;99.90
18894;DHT22;9579;49.488;8.226;2024-01-16T05:48:05;1.70;99.90
18894;DHT22;9579;49.488;8.226;2024-01-16T05:50:54;1.60;99.90
18894;DHT22;9579;49.488;8.226;2024-01-16T05:53:41;1.70;99.90
18894;DHT22;9579;49.488;8.226;2024-01-16T05:56:28;1.60;99.90
18894;DHT22;9579;49.488;8.226;2024-01-16T05:59:15;1.60;99.90
18894;DHT22;9579;49.488;8.226;2024-01-16T06:02:04;1.60;99.90
18894;DHT22;9579;49.488;8.226;2024-01-16T06:04:51;1.60;99.90
18894;DHT22;9579;49.488;8.226;2024-01-16T06:07:38;1.70;99.90
18894;DHT22;9579;49.488;8.226;2024-01-16T06:10:25;1.60;99.90
18894;DHT22;9579;49.488;8.226;2024-01-16T06:13:12;1.50;99.90
18894;DHT22;9579;49.488;8.226;2024-01-16T06:15:59;1.50;99.90
18894;DHT22;9579;49.488;8.226;2024-01-16T06:18:48;1.50;99.90
18894;DHT22;9579;49.488;8.226;2024-01-16T06:21:35;1.60;99.90
18894;DHT22;9579;49.488;8.226;2024-01-16T06:24:22;1.60;99.90
18894;DHT22;9579;49.488;8.226;2024-01-16T06:27:09;1.60;99.90
18894;DHT22;9579;49.488;8.226;2024-01-16T06:29:56;1.70;99.90
18894;DHT22;9579;49.488;8.226;2024-01-16T06:32:43;1.70;99.90
18894;DHT22;9579;49.488;8.226;2024-01-16T06:35:31;1.70;99.90
18894;DHT22;9579;49.488;8.226;2024-01-16T06:38:18;1.80;99.90
18894;DHT22;9579;49.488;8.226;2024-01-16T06:41:05;1.80;99.90
18894;DHT22;9579;49.488;8.226;2024-01-16T06:43:52;1.50;99.90
18894;DHT22;9579;49.488;8.226;2024-01-16T06:46:39;1.40;99.90
18894;DHT22;9579;49.488;8.226;2024-01-16T06:49:26;1.30;99.90
18894;DHT22;9579;49.488;8.226;2024-01-16T06:52:15;1.40;99.90
18894;DHT22;9579;49.488;8.226;2024-01-16T06:55:02;1.40;99.90
18894;DHT22;9579;49.488;8.226;2024-01-16T06:57:49;1.30;99.90
18894;DHT22;9579;49.488;8.226;2024-01-16T07:00:36;1.40;99.90
18894;DHT22;9579;49.488;8.226;2024-01-16T07:03:23;1.40;99.90
18894;DHT22;9579;49.488;8.226;2024-01-16T07:06:10;1.40;99.90
18894;DHT22;9579;49.488;8.226;2024-01-16T07:08:59;1.30;99.90
18894;DHT22;9579;49.488;8.226;2024-01-16T07:11:46;1.30;99.90
18894;DHT22;9579;49.488;8.226;2024-01-16T07:14:33;1.20;99.90
18894;DHT22;9579;49.488;8.226;2024-01-16T07:17:20;1.10;99.90
18894;DHT22;9579;49.488;8.226;2024-01-16T07:20:08;1.30;99.90
18894;DHT22;9579;49.488;8.226;2024-01-16T07:22:55;1.50;99.90
18894;DHT22;9579;49.488;8.226;2024-01-16T07:25:43;1.60;99.90
18894;DHT22;9579;49.488;8.226;2024-01-16T07:28:30;1.80;99.90
18894;DHT22;9579;49.488;8.226;2024-01-16T07:31:17;1.90;99.90
18894;DHT22;9579;49.488;8.226;2024-01-16T07:34:04;1.90;99.90
18894;DHT22;9579;49.488;8.226;2024-01-16T07:36:51;2.00;99.90
18894;DHT22;9579;49.488;8.226;2024-01-16T07:39:40;2.00;99.90
18894;DHT22;9579;49.488;8.226;2024-01-16T07:42:28;2.00;99.90
18894;DHT22;9579;49.488;8.226;2024-01-16T07:45:20;1.80;99.90
18894;DHT22;9579;49.488;8.226;2024-01-16T07:48:07;1.80;99.90
18894;DHT22;9579;49.488;8.226;2024-01-16T07:50:54;1.80;99.90
18894;DHT22;9579;49.488;8.226;2024-01-16T07:53:41;2.00;99.90
18894;DHT22;9579;49.488;8.226;2024-01-16T07:56:28;2.10;99.90
18894;DHT22;9579;49.488;8.226;2024-01-16T07:59:16;2.20;99.90
18894;DHT22;9579;49.488;8.226;2024-01-16T08:02:04;2.20;99.90
18894;DHT22;9579;49.488;8.226;2024-01-16T08:04:52;2.20;99.90
18894;DHT22;9579;49.488;8.226;2024-01-16T08:07:38;2.30;99.90
18894;DHT22;9579;49.488;8.226;2024-01-16T08:10:25;2.60;99.90
18894;DHT22;9579;49.488;8.226;2024-01-16T08:13:12;2.70;99.90
18894;DHT22;9579;49.488;8.226;2024-01-16T08:16:01;2.70;99.90
18894;DHT22;9579;49.488;8.226;2024-01-16T08:18:48;2.50;99.90
18894;DHT22;9579;49.488;8.226;2024-01-16T08:21:35;2.70;99.90
18894;DHT22;9579;49.488;8.226;2024-01-16T08:24:22;2.80;99.90
18894;DHT22;9579;49.488;8.226;2024-01-16T08:27:09;2.90;99.90
18894;DHT22;9579;49.488;8.226;2024-01-16T08:29:56;2.90;99.90
18894;DHT22;9579;49.488;8.226;2024-01-16T08:32:45;2.90;99.90
18894;DHT22;9579;49.488;8.226;2024-01-16T08:35:32;2.90;99.90
18894;DHT22;9579;49.488;8.226;2024-01-16T08:38:19;3.00;99.90
18894;DHT22;9579;49.488;8.226;2024-01-16T08:41:06;2.90;99.90
18894;DHT22;9579;49.488;8.226;2024-01-16T08:43:53;3.00;99.90
18894;DHT22;9579;49.488;8.226;2024-01-16T08:46:40;3.10;99.90
18894;DHT22;9579;49.488;8.226;2024-01-16T08:49:28;3.10;99.90
18894;DHT22;9579;49.488;8.226;2024-01-16T08:52:15;3.30;99.90
18894;DHT22;9579;49.488;8.226;2024-01-16T08:55:03;3.20;99.90
18894;DHT22;9579;49.488;8.226;2024-01-16T08:57:50;3.20;99.90
18894;DHT22;9579;49.488;8.226;2024-01-16T09:00:37;3.00;99.90
18894;DHT22;9579;49.488;8.226;2024-01-16T09:03:24;2.90;99.90
18894;DHT22;9579;49.488;8.226;2024-01-16T09:06:13;3.00;99.90
18894;DHT22;9579;49.488;8.226;2024-01-16T09:09:00;3.10;99.90
18894;DHT22;9579;49.488;8.226;2024-01-16T09:11:48;3.10;99.90
18894;DHT22;9579;49.488;8.226;2024-01-16T09:14:35;3.00;99.90
18894;DHT22;9579;49.488;8.226;2024-01-16T09:17:22;3.10;99.90
18894;DHT22;9579;49.488;8.226;2024-01-16T09:20:10;3.30;99.90
18894;DHT22;9579;49.488;8.226;2024-01-16T09:22:59;3.20;99.90
18894;DHT22;9579;49.488;8.226;2024-01-16T09:25:46;3.20;99.90
18894;DHT22;9579;49.488;8.226;2024-01-16T09:28:33;3.40;99.90
18894;DHT22;9579;49.488;8.226;2024-01-16T09:31:20;3.50;99.90
18894;DHT22;9579;49.488;8.226;2024-01-16T09:34:07;3.60;99.90
18894;DHT22;9579;49.488;8.226;2024-01-16T09:36:54;3.70;99.90
18894;DHT22;9579;49.488;8.226;2024-01-16T09:39:46;3.90;99.90
18894;DHT22;9579;49.488;8.226;2024-01-16T09:42:33;3.90;99.90
18894;DHT22;9579;49.488;8.226;2024-01-16T09:45:20;3.80;99.90
18894;DHT22;9579;49.488;8.226;2024-01-16T09:48:08;3.80;99.90
18894;DHT22;9579;49.488;8.226;2024-01-16T09:50:55;3.80;99.90
18894;DHT22;9579;49.488;8.226;2024-01-16T09:53:43;3.80;99.90
18894;DHT22;9579;49.488;8.226;2024-01-16T09:56:31;3.90;99.90
18894;DHT22;9579;49.488;8.226;2024-01-16T09:59:20;3.90;99.90
18894;DHT22;9579;49.488;8.226;2024-01-16T10:02:10;3.90;99.90
18894;DHT22;9579;49.488;8.226;2024-01-16T10:04:57;3.90;99.90
18894;DHT22;9579;49.488;8.226;2024-01-16T10:07:44;3.90;99.90
18894;DHT22;9579;49.488;8.226;2024-01-16T10:10:31;4.00;99.90
18894;DHT22;9579;49.488;8.226;2024-01-16T10:13:20;4.10;99.90
18894;DHT22;9579;49.488;8.226;2024-01-16T10:16:07;4.10;99.90
18894;DHT22;9579;49.488;8.226;2024-01-16T10:19:03;4.20;99.90
18894;DHT22;9579;49.488;8.226;2024-01-16T10:21:51;4.20;99.90
18894;DHT22;9579;49.488;8.226;2024-01-16T10:24:40;4.10;99.90
18894;DHT22;9579;49.488;8.226;2024-01-16T10:27:27;4.20;99.90
18894;DHT22;9579;49.488;8.226;2024-01-16T10:30:21;3.90;99.90
18894;DHT22;9579;49.488;8.226;2024-01-16T10:33:13;4.00;99.90
18894;DHT22;9579;49.488;8.226;2024-01-16T10:36:11;4.00;99.90
18894;DHT22;9579;49.488;8.226;2024-01-16T10:39:03;3.80;99.90
18894;DHT22;9579;49.488;8.226;2024-01-16T10:41:57;3.80;99.90
18894;DHT22;9579;49.488;8.226;2024-01-16T10:44:53;3.90;99.90
18894;DHT22;9579;49.488;8.226;2024-01-16T10:47:42;3.90;99.90
18894;DHT22;9579;49.488;8.226;2024-01-16T10:50:29;3.80;99.90
18894;DHT22;9579;49.488;8.226;2024-01-16T10:53:18;3.90;99.90
18894;DHT22;9579;49.488;8.226;2024-01-16T10:56:10;4.10;99.90
18894;DHT22;9579;49.488;8.226;2024-01-16T10:59:02;4.10;99.90
18894;DHT22;9579;49.488;8.226;2024-01-16T11:01:52;4.10;99.90
18894;DHT22;9579;49.488;8.226;2024-01-16T11:04:43;4.10;99.90
18894;DHT22;9579;49.488;8.226;2024-01-16T11:07:31;4.20;99.90
18894;DHT22;9579;49.488;8.226;2024-01-16T11:10:18;4.10;99.90
18894;DHT22;9579;49.488;8.226;2024-01-16T11:13:06;4.00;99.90
18894;DHT22;9579;49.488;8.226;2024-01-16T11:15:54;4.20;99.90
18894;DHT22;9579;49.488;8.226;2024-01-16T11:18:42;4.40;99.90
18894;DHT22;9579;49.488;8.226;2024-01-16T11:21:31;4.30;99.90
18894;DHT22;9579;49.488;8.226;2024-01-16T11:24:18;4.50;99.90
18894;DHT22;9579;49.488;8.226;2024-01-16T11:27:05;4.60;99.90
18894;DHT22;9579;49.488;8.226;2024-01-16T11:29:53;4.80;99.90
18894;DHT22;9579;49.488;8.226;2024-01-16T11:32:41;5.00;99.60
18894;DHT22;9579;49.488;8.226;2024-01-16T11:35:34;4.90;99.90
18894;DHT22;9579;49.488;8.226;2024-01-16T11:38:24;5.10;99.80
18894;DHT22;9579;49.488;8.226;2024-01-16T11:41:53;5.20;99.50
18894;DHT22;9579;49.488;8.226;2024-01-16T11:44:42;5.30;99.00
18894;DHT22;9579;49.488;8.226;2024-01-16T11:47:29;5.30;99.30
18894;DHT22;9579;49.488;8.226;2024-01-16T11:50:28;5.30;98.90
18894;DHT22;9579;49.488;8.226;2024-01-16T11:53:42;5.10;99.00
18894;DHT22;9579;49.488;8.226;2024-01-16T11:56:48;5.00;99.20
18894;DHT22;9579;49.488;8.226;2024-01-16T11:59:59;5.10;99.30
18894;DHT22;9579;49.488;8.226;2024-01-16T12:02:51;5.40;99.10
18894;DHT22;9579;49.488;8.226;2024-01-16T12:05:39;5.90;98.70
18894;DHT22;9579;49.488;8.226;2024-01-16T12:08:26;6.20;98.40
18894;DHT22;9579;49.488;8.226;2024-01-16T12:11:19;6.50;97.50
18894;DHT22;9579;49.488;8.226;2024-01-16T12:14:06;6.70;96.60
18894;DHT22;9579;49.488;8.226;2024-01-16T12:17:08;6.80;95.80
18894;DHT22;9579;49.488;8.226;2024-01-16T12:19:55;6.90;95.90
18894;DHT22;9579;49.488;8.226;2024-01-16T12:22:43;7.00;95.70
18894;DHT22;9579;49.488;8.226;2024-01-16T12:25:31;7.20;94.90
18894;DHT22;9579;49.488;8.226;2024-01-16T12:28:20;7.20;94.30
18894;DHT22;9579;49.488;8.226;2024-01-16T12:31:07;7.40;93.90
18894;DHT22;9579;49.488;8.226;2024-01-16T12:34:04;7.20;93.40
18894;DHT22;9579;49.488;8.226;2024-01-16T12:37:04;7.10;93.70
18894;DHT22;9579;49.488;8.226;2024-01-16T12:39:51;7.00;93.30
18894;DHT22;9579;49.488;8.226;2024-01-16T12:42:39;7.10;94.30
18894;DHT22;9579;49.488;8.226;2024-01-16T12:45:27;7.60;93.30
18894;DHT22;9579;49.488;8.226;2024-01-16T12:48:22;7.90;92.50
18894;DHT22;9579;49.488;8.226;2024-01-16T12:51:10;8.30;92.30
18894;DHT22;9579;49.488;8.226;2024-01-16T12:54:11;8.20;92.10
18894;DHT22;9579;49.488;8.226;2024-01-16T12:56:58;8.20;92.20
18894;DHT22;9579;49.488;8.226;2024-01-16T12:59:46;8.30;91.90
18894;DHT22;9579;49.488;8.226;2024-01-16T13:02:35;8.30;91.00
18894;DHT22;9579;49.488;8.226;2024-01-16T13:05:22;8.10;91.60
18894;DHT22;9579;49.488;8.226;2024-01-16T13:08:17;8.40;90.80
18894;DHT22;9579;49.488;8.226;2024-01-16T13:11:06;8.40;91.30
18894;DHT22;9579;49.488;8.226;2024-01-16T13:14:00;8.30;92.00
18894;DHT22;9579;49.488;8.226;2024-01-16T13:16:49;8.00;91.60
18894;DHT22;9579;49.488;8.226;2024-01-16T13:19:37;7.70;91.40
18894;DHT22;9579;49.488;8.226;2024-01-16T13:22:27;7.60;92.50
18894;DHT22;9579;49.488;8.226;2024-01-16T13:25:14;7.50;92.60
18894;DHT22;9579;49.488;8.226;2024-01-16T13:28:01;7.80;93.30
18894;DHT22;9579;49.488;8.226;2024-01-16T13:30:49;8.30;92.60
18894;DHT22;9579;49.488;8.226;2024-01-16T13:33:36;8.30;91.80
18894;DHT22;9579;49.488;8.226;2024-01-16T13:36:24;8.10;92.20
18894;DHT22;9579;49.488;8.226;2024-01-16T13:39:12;7.80;92.30
18894;DHT22;9579;49.488;8.226;2024-01-16T13:42:00;7.60;92.60
18894;DHT22;9579;49.488;8.226;2024-01-16T13:44:51;7.80;92.40
18894;DHT22;9579;49.488;8.226;2024-01-16T13:47:38;8.10;91.90
18894;DHT22;9579;49.488;8.226;2024-01-16T13:50:26;8.10;92.00
18894;DHT22;9579;49.488;8.226;2024-01-16T13:53:15;8.00;91.40
18894;DHT22;9579;49.488;8.226;2024-01-16T13:56:02;7.90;90.40
18894;DHT22;9579;49.488;8.226;2024-01-16T13:58:49;7.50;90.80
18894;DHT22;9579;49.488;8.226;2024-01-16T14:01:36;7.40;91.20
18894;DHT22;9579;49.488;8.226;2024-01-16T14:04:24;7.30;91.20
18894;DHT22;9579;49.488;8.226;2024-01-16T14:07:11;7.70;91.60
18894;DHT22;9579;49.488;8.226;2024-01-16T14:10:00;7.90;91.00
18894;DHT22;9579;49.488;8.226;2024-01-16T14:12:49;7.70;90.40
18894;DHT22;9579;49.488;8.226;2024-01-16T14:15:37;7.50;89.10
18894;DHT22;9579;49.488;8.226;2024-01-16T14:18:25;7.30;89.40
18894;DHT22;9579;49.488;8.226;2024-01-16T14:21:12;7.10;90.20
18894;DHT22;9579;49.488;8.226;2024-01-16T14:23:59;7.00;90.30
18894;DHT22;9579;49.488;8.226;2024-01-16T14:26:47;6.80;90.30
18894;DHT22;9579;49.488;8.226;2024-01-16T14:29:37;6.80;90.60
18894;DHT22;9579;49.488;8.226;2024-01-16T14:32:25;6.70;91.00
18894;DHT22;9579;49.488;8.226;2024-01-16T14:35:13;6.60;90.80
18894;DHT22;9579;49.488;8.226;2024-01-16T14:38:03;7.20;91.30
18894;DHT22;9579;49.488;8.226;2024-01-16T14:40:50;9.40;89.90
18894;DHT22;9579;49.488;8.226;2024-01-16T14:43:39;11.80;82.60
18894;DHT22;9579;49.488;8.226;2024-01-16T14:46:26;13.70;74.80
18894;DHT22;9579;49.488;8.226;2024-01-16T14:49:13;15.30;69.20
18894;DHT22;9579;49.488;8.226;2024-01-16T14:52:00;16.90;61.40
18894;DHT22;9579;49.488;8.226;2024-01-16T14:54:47;18.00;58.30
18894;DHT22;9579;49.488;8.226;2024-01-16T14:57:34;18.60;56.90
18894;DHT22;9579;49.488;8.226;2024-01-16T15:00:28;19.50;54.10
18894;DHT22;9579;49.488;8.226;2024-01-16T15:03:16;20.10;51.20
18894;DHT22;9579;49.488;8.226;2024-01-16T15:06:04;20.60;50.20
18894;DHT22;9579;49.488;8.226;2024-01-16T15:08:51;20.80;50.20
18894;DHT22;9579;49.488;8.226;2024-01-16T15:11:38;19.60;50.00
18894;DHT22;9579;49.488;8.226;2024-01-16T15:14:25;17.90;51.20
18894;DHT22;9579;49.488;8.226;2024-01-16T15:17:14;16.80;53.10
18894;DHT22;9579;49.488;8.226;2024-01-16T15:20:01;15.80;53.40
18894;DHT22;9579;49.488;8.226;2024-01-16T15:22:48;14.30;53.20
18894;DHT22;9579;49.488;8.226;2024-01-16T15:25:38;12.80;55.30
18894;DHT22;9579;49.488;8.226;2024-01-16T15:28:25;11.10;57.90
18894;DHT22;9579;49.488;8.226;2024-01-16T15:31:12;10.20;60.70
18894;DHT22;9579;49.488;8.226;2024-01-16T15:34:01;9.30;64.60
18894;DHT22;9579;49.488;8.226;2024-01-16T15:36:48;8.60;67.50
18894;DHT22;9579;49.488;8.226;2024-01-16T15:39:35;8.10;69.90
18894;DHT22;9579;49.488;8.226;2024-01-16T15:42:22;7.50;73.20
18894;DHT22;9579;49.488;8.226;2024-01-16T15:45:11;7.10;75.70
18894;DHT22;9579;49.488;8.226;2024-01-16T15:47:58;6.80;76.80
18894;DHT22;9579;49.488;8.226;2024-01-16T15:50:47;6.50;78.70
18894;DHT22;9579;49.488;8.226;2024-01-16T15:53:34;6.40;79.70
18894;DHT22;9579;49.488;8.226;2024-01-16T15:56:21;6.10;81.00
18894;DHT22;9579;49.488;8.226;2024-01-16T15:59:10;5.90;82.20
18894;DHT22;9579;49.488;8.226;2024-01-16T16:01:57;5.70;83.60
18894;DHT22;9579;49.488;8.226;2024-01-16T16:04:44;5.60;84.70
18894;DHT22;9579;49.488;8.226;2024-01-16T16:07:33;5.40;85.30
18894;DHT22;9579;49.488;8.226;2024-01-16T16:10:20;5.20;86.10
18894;DHT22;9579;49.488;8.226;2024-01-16T16:13:07;5.00;87.30
18894;DHT22;9579;49.488;8.226;2024-01-16T16:15:55;4.80;87.70
18894;DHT22;9579;49.488;8.226;2024-01-16T16:18:42;4.60;89.20
18894;DHT22;9579;49.488;8.226;2024-01-16T16:21:30;4.50;90.30
18894;DHT22;9579;49.488;8.226;2024-01-16T16:24:18;4.30;90.60
18894;DHT22;9579;49.488;8.226;2024-01-16T16:27:21;4.30;90.80
18894;DHT22;9579;49.488;8.226;2024-01-16T16:30:10;4.20;90.80
18894;DHT22;9579;49.488;8.226;2024-01-16T16:32:57;4.20;90.90
18894;DHT22;9579;49.488;8.226;2024-01-16T16:35:44;4.10;91.40
18894;DHT22;9579;49.488;8.226;2024-01-16T16:38:31;4.00;91.10
18894;DHT22;9579;49.488;8.226;2024-01-16T16:41:19;4.00;91.10
18894;DHT22;9579;49.488;8.226;2024-01-16T16:44:07;4.10;91.70
18894;DHT22;9579;49.488;8.226;2024-01-16T16:46:54;4.00;91.70
18894;DHT22;9579;49.488;8.226;2024-01-16T16:49:41;4.00;91.90
18894;DHT22;9579;49.488;8.226;2024-01-16T16:52:28;4.00;91.50
18894;DHT22;9579;49.488;8.226;2024-01-16T16:55:15;4.00;91.60
18894;DHT22;9579;49.488;8.226;2024-01-16T16:58:03;4.00;91.70
18894;DHT22;9579;49.488;8.226;2024-01-16T17:00:53;3.90;91.60
18894;DHT22;9579;49.488;8.226;2024-01-16T17:03:41;3.70;92.00
18894;DHT22;9579;49.488;8.226;2024-01-16T17:06:29;3.70;92.20
18894;DHT22;9579;49.488;8.226;2024-01-16T17:09:16;3.70;92.10
18894;DHT22;9579;49.488;8.226;2024-01-16T17:12:05;3.60;92.10
18894;DHT22;9579;49.488;8.226;2024-01-16T17:14:53;3.50;92.20
18894;DHT22;9579;49.488;8.226;2024-01-16T17:17:42;3.40;92.40
18894;DHT22;9579;49.488;8.226;2024-01-16T17:20:29;3.40;92.50
18894;DHT22;9579;49.488;8.226;2024-01-16T17:23:16;3.30;92.90
18894;DHT22;9579;49.488;8.226;2024-01-16T17:26:03;3.30;92.80
18894;DHT22;9579;49.488;8.226;2024-01-16T17:28:50;3.20;92.90
18894;DHT22;9579;49.488;8.226;2024-01-16T17:31:39;3.10;93.20
18894;DHT22;9579;49.488;8.226;2024-01-16T17:34:26;3.10;93.10
18894;DHT22;9579;49.488;8.226;2024-01-16T17:37:14;3.00;94.00
18894;DHT22;9579;49.488;8.226;2024-01-16T17:40:01;2.90;93.60
18894;DHT22;9579;49.488;8.226;2024-01-16T17:42:48;2.80;94.20
18894;DHT22;9579;49.488;8.226;2024-01-16T17:45:35;2.90;94.10
18894;DHT22;9579;49.488;8.226;2024-01-16T17:48:25;2.90;94.00
18894;DHT22;9579;49.488;8.226;2024-01-16T17:51:13;2.80;94.30
18894;DHT22;9579;49.488;8.226;2024-01-16T17:54:00;2.80;94.10
18894;DHT22;9579;49.488;8.226;2024-01-16T17:56:47;2.80;94.40
18894;DHT22;9579;49.488;8.226;2024-01-16T17:59:34;2.70;94.40
18894;DHT22;9579;49.488;8.226;2024-01-16T18:02:22;2.70;94.00
18894;DHT22;9579;49.488;8.226;2024-01-16T18:05:10;2.70;94.00
18894;DHT22;9579;49.488;8.226;2024-01-16T18:08:02;2.50;94.00
18894;DHT22;9579;49.488;8.226;2024-01-16T18:10:50;2.30;94.70
18894;DHT22;9579;49.488;8.226;2024-01-16T18:13:39;2.30;95.00
18894;DHT22;9579;49.488;8.226;2024-01-16T18:16:27;2.00;95.10
18894;DHT22;9579;49.488;8.226;2024-01-16T18:19:14;2.20;95.10